Latest Weather Observations for Yeppoon

IDQ60801

Issued at 10:02 pm EST Tuesday 6 December 2016 (issued every 30 minutes, with the page automatically refreshed every 10 minutes)

About weather observations | Map of weather stations | Latest weather observations for QLD | Other Formats
Station Details ID: 033294 Name: YEPPOON THE ESPLANADE Lat: -23.14 Lon: 150.75 Height: 5.5 m
Data from the previous 72 hours. | See also: Recent months at Yeppoon
Date/Time
EST
Temp
°C
App
Temp
°C
Dew
Point
°C
Rel
Hum
%
Delta-T
°C
Wind Press
QNH
hPa
Press
MSL
hPa
Rain since
9am
mm
Dir  Spd
km/h
Gust
km/h
Spd
kts
Gust
kts
06/10:00pm 24.9 27.1 20.3 75 3.0 N 9 13 5 7 1013.5 1013.5 0.0
06/09:30pm 25.1 26.9 20.3 74 3.1 N 11 15 6 8 1013.4 1013.4 0.0
06/09:00pm 25.3 25.4 20.4 74 3.2 N 20 32 11 17 1013.2 1013.2 0.0
06/08:30pm 26.0 24.7 20.7 72 3.5 NNE 28 33 15 18 1012.9 1012.9 0.0
06/08:00pm 25.9 25.2 21.0 74 3.2 NNE 26 30 14 16 1013.1 1013.1 0.0
06/07:30pm 26.0 25.4 21.2 75 3.2 NNE 26 32 14 17 1012.9 1012.9 0.0
06/07:00pm 26.2 24.9 20.7 71 3.6 NNE 28 33 15 18 1012.7 1012.7 0.0
06/06:30pm 26.3 24.8 21.0 72 3.5 NNE 30 35 16 19 1012.7 1012.7 0.0
06/06:00pm 26.5 25.2 21.4 73 3.4 NNE 30 35 16 19 1012.6 1012.6 0.0
06/05:30pm 26.9 26.2 21.0 70 3.9 NE 26 33 14 18 1012.6 1012.6 0.0
06/05:00pm 27.2 27.1 21.5 71 3.8 NE 24 30 13 16 1012.8 1012.8 0.0
06/04:30pm 27.5 27.9 21.8 71 3.8 NE 22 28 12 15 1012.9 1012.9 0.0
06/04:00pm 28.0 28.2 21.4 67 4.4 NE 22 26 12 14 1013.2 1013.2 0.0
06/03:30pm 28.0 28.2 21.4 67 4.4 NE 22 30 12 16 1013.5 1013.5 0.0
06/03:00pm 28.0 27.9 20.7 64 4.8 ENE 22 26 12 14 1013.8 1013.8 0.0
06/02:30pm 28.0 28.1 21.2 66 4.5 ENE 22 26 12 14 1014.1 1014.1 0.0
06/02:00pm 27.5 27.3 21.3 69 4.1 ENE 24 30 13 16 1014.6 1014.6 0.0
06/01:30pm 28.1 28.1 21.7 68 4.3 ENE 24 30 13 16 1014.9 1014.9 0.0
06/01:00pm 28.3 28.5 21.4 66 4.6 ENE 22 26 12 14 1015.4 1015.4 0.0
06/12:30pm 28.2 28.2 21.0 65 4.8 ENE 22 28 12 15 1015.7 1015.7 0.0
06/12:00pm 28.2 28.2 21.0 65 4.8 ENE 22 26 12 14 1015.8 1015.8 0.0
06/11:30am 28.0 28.0 20.9 65 4.7 ENE 22 28 12 15 1016.1 1016.1 0.0
06/11:00am 28.9 29.4 21.2 63 5.1 NE 20 24 11 13 1016.3 1016.3 0.0
06/10:30am 29.3 30.0 21.2 61 5.4 NE 19 22 10 12 1016.7 1016.7 0.0
06/10:00am 28.4 28.8 20.7 63 5.1 ENE 19 22 10 12 1016.8 1016.8 0.0
06/09:30am 27.9 28.9 21.1 66 4.5 NE 17 20 9 11 1016.6 1016.6 0.0
06/09:00am 27.9 28.7 21.3 67 4.4 NNE 19 20 10 11 1016.5 1016.5 0.0
06/08:30am 27.6 27.6 20.9 67 4.4 NNE 22 26 12 14 1016.5 1016.5 0.0
06/08:00am 27.2 27.2 21.0 69 4.1 NNE 22 26 12 14 1016.3 1016.3 0.0
06/07:30am 26.8 26.9 21.2 71 3.7 NNE 22 26 12 14 1016.0 1016.0 0.0
06/07:00am 26.6 26.4 20.5 69 4.0 NNE 22 28 12 15 1015.6 1015.6 0.0
06/06:30am 25.9 26.9 21.0 74 3.2 N 17 24 9 13 1015.0 1015.0 0.0
06/06:00am 24.9 25.9 21.1 79 2.5 N 17 19 9 10 1014.8 1014.8 0.0
06/05:30am 24.6 26.3 20.9 80 2.4 N 13 17 7 9 1014.5 1014.5 0.0
06/05:00am 24.4 26.7 20.7 80 2.4 N 9 11 5 6 1014.6 1014.6 0.0
06/04:30am 24.4 26.8 20.9 81 2.3 N 9 13 5 7 1014.2 1014.2 0.0
06/04:00am 24.4 26.9 21.1 82 2.2 N 9 15 5 8 1013.9 1013.9 0.0
06/03:30am 24.5 26.7 21.2 82 2.2 N 11 15 6 8 1013.7 1013.7 0.0
06/03:00am 24.7 25.9 21.4 82 2.2 N 17 24 9 13 1013.5 1013.5 0.0
06/02:30am 24.7 26.2 21.2 81 2.3 N 15 19 8 10 1013.5 1013.5 0.0
06/02:00am 24.7 26.9 21.2 81 2.3 N 11 15 6 8 1013.7 1013.7 0.0
06/01:30am 24.7 26.9 21.2 81 2.3 N 11 17 6 9 1013.6 1013.6 0.0
06/01:00am 24.9 26.8 21.3 80 2.4 N 13 17 7 9 1013.6 1013.6 0.0
06/12:30am 24.8 26.6 21.2 80 2.4 N 13 17 7 9 1013.8 1013.8 0.0
06/12:00am 24.8 26.7 21.3 81 2.3 N 13 17 7 9 1014.1 1014.1 0.0
 
Date/Time
EST
Temp
°C
App
Temp
°C
Dew
Point
°C
Rel
Hum
%
Delta-T
°C
Wind Press
QNH
hPa
Press
MSL
hPa
Rain since
9am
mm
Dir  Spd
km/h
Gust
km/h
Spd
kts
Gust
kts
05/11:30pm 25.1 26.6 21.3 79 2.5 N 15 19 8 10 1014.2 1014.2 0.0
05/11:00pm 25.2 26.7 21.3 79 2.6 N 15 20 8 11 1014.3 1014.3 0.0
05/10:30pm 26.1 25.2 22.1 78 2.7 NNE 30 35 16 19 1014.5 1014.5 0.0
05/10:00pm 26.2 24.8 22.0 77 2.8 NNE 32 35 17 19 1014.5 1014.5 0.0
05/09:30pm 26.3 24.9 22.0 77 2.9 NNE 32 35 17 19 1014.4 1014.4 0.0
05/09:00pm 26.3 24.9 22.0 77 2.9 NNE 32 35 17 19 1014.4 1014.4 0.0
05/08:30pm 26.3 24.3 21.8 76 3.0 NNE 35 39 19 21 1014.2 1014.2 0.0
05/08:00pm 26.3 24.8 22.0 77 2.9 NNE 33 37 18 20 1014.1 1014.1 0.0
05/07:30pm 26.3 24.8 22.1 77 2.8 NNE 33 39 18 21 1013.9 1013.9 0.0
05/07:00pm 26.4 24.9 21.8 76 3.1 NNE 32 37 17 20 1013.6 1013.6 0.0
05/06:30pm 26.4 25.3 21.8 76 3.1 NNE 30 35 16 19 1013.5 1013.5 0.0
05/06:00pm 26.6 25.0 21.5 73 3.4 NNE 32 35 17 19 1013.3 1013.3 0.0
05/05:30pm 26.8 25.3 21.7 73 3.4 NNE 32 37 17 20 1013.0 1013.0 0.0
05/05:00pm 27.1 25.7 22.0 73 3.4 NE 32 35 17 19 1012.7 1012.7 0.0
05/04:30pm 27.1 26.1 21.9 73 3.5 NE 30 37 16 20 1012.7 1012.7 0.0
05/04:00pm 27.4 26.8 22.0 72 3.6 NE 28 35 15 19 1012.6 1012.6 0.0
05/03:30pm 27.4 26.5 22.2 73 3.5 NE 30 35 16 19 1012.7 1012.7 0.0
05/03:00pm 27.8 27.4 22.3 72 3.7 NE 28 37 15 20 1012.8 1012.8 0.0
05/02:30pm 28.1 28.3 22.0 69 4.1 NE 24 33 13 18 1013.3 1013.3 0.0
05/02:00pm 27.7 27.3 21.7 70 4.0 NE 26 32 14 17 1013.7 1013.7 0.0
05/01:30pm 28.1 28.3 22.0 69 4.1 NE 24 30 13 16 1014.1 1014.1 0.0
05/01:00pm 27.9 27.9 21.6 68 4.2 NE 24 30 13 16 1014.4 1014.4 0.0
05/12:30pm 28.2 28.7 22.0 69 4.2 NE 22 28 12 15 1014.6 1014.6 0.0
05/12:00pm 28.0 28.1 21.9 69 4.1 NE 24 30 13 16 1014.8 1014.8 0.0
05/11:30am 28.2 28.9 21.6 67 4.4 NE 20 26 11 14 1015.4 1015.4 0.0
05/11:00am 28.1 29.0 21.5 67 4.4 NE 19 24 10 13 1015.7 1015.7 0.0
05/10:30am 27.9 28.8 21.6 68 4.2 NE 19 24 10 13 1016.0 1016.0 0.0
05/10:00am 27.8 28.5 21.2 67 4.4 NE 19 22 10 12 1016.2 1016.2 0.0
05/09:30am 27.9 28.9 21.8 69 4.1 NE 19 22 10 12 1016.3 1016.3 0.0
05/09:00am 27.5 28.9 21.8 71 3.8 NNE 17 22 9 12 1016.6 1016.6 0.0
05/08:30am 27.2 27.5 21.5 71 3.8 NNE 22 26 12 14 1016.4 1016.4 0.0
05/08:00am 26.9 27.4 21.2 71 3.8 NNE 20 24 11 13 1016.6 1016.6 0.0
05/07:30am 26.4 27.1 21.6 75 3.2 NE 20 24 11 13 1016.6 1016.6 0.0
05/07:00am 26.3 26.6 21.5 75 3.2 NE 22 28 12 15 1016.2 1016.2 0.0
05/06:30am 25.9 27.7 21.9 78 2.7 NNE 15 20 8 11 1016.0 1016.0 0.0
05/06:00am 25.2 26.8 21.4 79 2.5 N 15 17 8 9 1015.5 1015.5 0.0
05/05:30am 24.8 26.8 21.5 82 2.2 N 13 15 7 8 1015.3 1015.3 0.0
05/05:00am 24.6 26.6 21.6 83 2.0 N 13 15 7 8 1015.0 1015.0 0.0
05/04:30am 24.4 26.5 21.7 85 1.8 N 13 15 7 8 1014.5 1014.5 0.0
05/04:00am 24.4 26.1 21.7 85 1.8 N 15 19 8 10 1014.0 1014.0 0.0
05/03:30am 24.5 26.3 21.8 85 1.8 N 15 20 8 11 1014.0 1014.0 0.0
05/03:00am 24.6 26.3 21.7 84 1.9 N 15 24 8 13 1014.0 1014.0 0.0
05/02:30am 24.6 26.9 22.1 86 1.7 N 13 20 7 11 1014.0 1014.0 0.0
05/02:00am 24.7 27.0 22.0 85 1.8 N 13 15 7 8 1014.1 1014.1 0.0
05/01:30am 24.7 26.3 22.2 86 1.7 N 17 19 9 10 1014.0 1014.0 0.0
05/01:00am 24.8 26.6 21.9 84 1.9 N 15 17 8 9 1014.2 1014.2 0.0
05/12:30am 24.8 27.0 21.9 84 1.9 N 13 15 7 8 1014.5 1014.5 0.0
05/12:00am 24.8 27.3 21.8 83 2.0 N 11 15 6 8 1014.7 1014.7 0.0
 
Date/Time
EST
Temp
°C
App
Temp
°C
Dew
Point
°C
Rel
Hum
%
Delta-T
°C
Wind Press
QNH
hPa
Press
MSL
hPa
Rain since
9am
mm
Dir  Spd
km/h
Gust
km/h
Spd
kts
Gust
kts
04/11:30pm 24.8 27.0 21.8 83 2.0 N 13 15 7 8 1014.8 1014.8 0.0
04/11:00pm 25.0 27.2 21.8 82 2.1 N 13 19 7 10 1015.0 1015.0 0.0
04/10:30pm 25.1 26.5 21.9 82 2.1 N 17 20 9 11 1014.9 1014.9 0.0
04/10:00pm 25.1 26.9 21.8 82 2.2 N 15 19 8 10 1015.0 1015.0 0.0
04/09:30pm 25.2 26.9 21.7 81 2.3 N 15 19 8 10 1015.0 1015.0 0.0
04/09:00pm 25.3 27.4 21.7 80 2.4 N 13 19 7 10 1014.9 1014.9 0.0
04/08:30pm 25.9 25.1 21.7 77 2.8 N 28 35 15 19 1014.5 1014.5 0.0
04/08:00pm 26.3 24.8 22.1 77 2.8 NNE 33 39 18 21 1014.1 1014.1 0.0
04/07:30pm 26.3 24.2 22.4 79 2.6 NNE 37 41 20 22 1013.7 1013.7 0.0
04/07:00pm 26.4 24.1 22.7 80 2.5 NNE 39 43 21 23 1013.3 1013.3 0.0
04/06:30pm 26.6 24.2 22.6 78 2.7 NNE 39 46 21 25 1012.9 1012.9 0.0
04/06:00pm 26.7 23.9 22.4 77 2.9 NNE 41 46 22 25 1012.7 1012.7 0.0
04/05:30pm 26.8 24.4 22.5 77 2.9 NNE 39 46 21 25 1012.6 1012.6 0.0
04/05:00pm 27.2 25.2 22.5 75 3.2 NNE 37 43 20 23 1012.4 1012.4 0.0
04/04:30pm 27.3 25.2 22.4 74 3.3 NNE 37 41 20 22 1012.4 1012.4 0.0
04/04:00pm 27.6 26.1 22.7 74 3.3 NE 35 43 19 23 1012.4 1012.4 0.0
04/03:30pm 27.4 25.6 22.2 73 3.5 NNE 35 41 19 22 1012.3 1012.3 0.0
04/03:00pm 27.7 26.4 23.2 76 3.1 NNE 35 41 19 22 1012.4 1012.4 0.0
04/02:30pm 27.6 26.4 22.6 74 3.4 NNE 33 39 18 21 1012.9 1012.9 0.0
04/02:00pm 27.9 27.1 23.1 75 3.3 NE 32 37 17 20 1013.3 1013.3 0.0
04/01:30pm 28.0 27.7 22.5 72 3.7 NE 28 35 15 19 1013.7 1013.7 0.0
04/01:00pm 27.9 27.4 22.9 74 3.4 NE 30 35 16 19 1014.0 1014.0 0.0
04/12:30pm 28.0 27.1 22.9 74 3.5 NNE 32 35 17 19 1014.4 1014.4 0.0
04/12:00pm 27.9 27.3 22.7 73 3.5 NE 30 35 16 19 1015.0 1015.0 0.0
04/11:30am 28.0 27.7 22.5 72 3.7 NE 28 33 15 18 1015.4 1015.4 0.0
04/11:00am 28.1 27.9 22.8 73 3.6 NNE 28 33 15 18 1015.6 1015.6 0.0
04/10:30am 28.0 28.6 22.8 73 3.5 NE 24 33 13 18 1016.0 1016.0 0.0
04/10:00am 27.8 27.9 22.5 73 3.6 NE 26 32 14 17 1016.2 1016.2 0.0
04/09:30am 27.5 28.0 22.6 74 3.3 NE 24 28 13 15 1016.2 1016.2 0.0
04/09:00am 27.4 29.3 22.7 75 3.2 NE 17 24 9 13 1016.3 1016.3 0.0
04/08:30am 27.5 30.1 22.6 74 3.3 NE 13 17 7 9 1016.1 1016.1 0.0
04/08:00am 27.4 28.9 22.0 72 3.6 N 17 20 9 11 1016.0 1016.0 0.0
04/07:30am 26.8 28.3 22.0 75 3.2 N 17 22 9 12 1016.0 1016.0 0.0
04/07:00am 26.7 28.9 21.9 75 3.2 N 13 20 7 11 1015.5 1015.5 0.0
04/06:30am 26.6 29.6 22.0 76 3.1 NNW 9 15 5 8 1015.1 1015.1 0.0
04/06:00am 25.7 27.9 21.8 79 2.6 N 13 19 7 10 1014.9 1014.9 0.0
04/05:30am 25.1 26.9 21.8 82 2.2 N 15 20 8 11 1014.6 1014.6 0.0
04/05:00am 25.6 24.7 22.2 81 2.3 N 30 33 16 18 1014.1 1014.1 0.0
04/04:30am 25.7 24.5 22.6 83 2.1 NNE 33 39 18 21 1013.5 1013.5 0.0
04/04:00am 25.9 25.6 22.6 82 2.2 NE 28 37 15 20 1014.4 1014.4 0.0
04/03:30am 25.9 24.5 22.3 80 2.4 NE 33 41 18 22 1014.5 1014.5 0.0
04/03:00am 26.1 24.6 22.7 81 2.3 ENE 35 46 19 25 1015.0 1015.0 0.0
04/02:30am 26.0 24.4 22.6 81 2.3 E 35 41 19 22 1015.8 1015.8 0.0
04/02:00am 26.1 24.8 22.5 80 2.4 E 33 39 18 21 1016.4 1016.4 0.0
04/01:30am 26.2 25.3 22.8 81 2.3 E 32 39 17 21 1016.8 1016.8 0.0
04/01:00am 26.2 26.6 23.1 83 2.1 E 26 32 14 17 1016.8 1016.8 0.0
04/12:47am 25.2 28.3 22.8 86 1.6 NE 11 19 6 10 1016.9 1016.9 0.0
04/12:30am 24.8 28.0 22.4 86 1.6 N 9 15 5 8 1014.9 1014.9 0.0
04/12:00am 24.6 27.1 22.4 87 1.5 N 13 19 7 10 1014.8 1014.8 0.0
 
Date/Time
EST
Temp
°C
App
Temp
°C
Dew
Point
°C
Rel
Hum
%
Delta-T
°C
Wind Press
QNH
hPa
Press
MSL
hPa
Rain since
9am
mm
Dir  Spd
km/h
Gust
km/h
Spd
kts
Gust
kts
03/11:30pm 24.6 26.7 22.4 87 1.5 N 15 19 8 10 1015.1 1015.1 0.0
03/11:00pm 24.7 27.1 22.3 86 1.6 NNE 13 19 7 10 1014.9 1014.9 0.0
03/10:30pm 24.6 27.7 22.2 86 1.6 N 9 17 5 9 1015.3 1015.3 0.0

Other Formats:

Comma delimited format used in spreadsheet applications
http://www.bom.gov.au/fwo/IDQ60801/IDQ60801.94373.axf

JavaScript Object Notation format (JSON) in row-major order
http://www.bom.gov.au/fwo/IDQ60801/IDQ60801.94373.json